Time;durP1;ratioP1;P1;durP2;ratioP2;P2;SDS_P1;SDS_P2;PMS_P1;PMS_P2;Temp;Humidity;BMP_temperature;BMP_pressure;BME280_temperature;BME280_humidity;BME280_pressure;Samples;Min_cycle;Max_cycle;Signal;HPM_P1;HPM_P2
2021/10/19 12:30:17;;;;;;;7.63;3.50;;;19.80;99.90;;;;;;11981763;27;20465;-63
2021/10/19 12:36:07;;;;;;;7.18;3.63;;;20.10;99.90;;;;;;11935444;28;20057;-63
2021/10/19 12:41:56;;;;;;;5.50;3.30;;;20.80;99.90;;;;;;11921163;28;20102;-62
2021/10/19 12:47:44;;;;;;;6.10;3.30;;;21.30;99.90;;;;;;11919168;28;20057;-63
2021/10/19 12:53:31;;;;;;;4.13;3.25;;;21.60;99.90;;;;;;11925725;28;20061;-63
2021/10/19 12:59:18;;;;;;;5.63;3.50;;;21.80;99.90;;;;;;11920832;28;20050;-63
2021/10/19 13:05:07;;;;;;;4.60;3.00;;;22.10;99.90;;;;;;11916890;28;20038;-63
2021/10/19 13:10:54;;;;;;;6.10;3.53;;;22.30;99.90;;;;;;11936750;28;20060;-63
2021/10/19 13:16:41;;;;;;;7.07;3.58;;;22.60;99.90;;;;;;11913765;28;20108;-62
2021/10/19 13:22:29;;;;;;;4.75;3.08;;;22.80;99.90;;;;;;11925127;28;20615;-62
2021/10/19 13:28:26;;;;;;;5.85;4.13;;;22.90;99.90;;;;;;11932944;28;20049;-63
2021/10/19 13:34:13;;;;;;;125.25;75.03;;;23.00;99.90;;;;;;11957869;28;20094;-61
2021/10/19 13:40:03;;;;;;;5.18;3.40;;;23.10;99.90;;;;;;11940808;28;20111;-62
2021/10/19 13:45:51;;;;;;;7.18;3.22;;;23.20;99.90;;;;;;11932288;28;20515;-62
2021/10/19 13:51:38;;;;;;;3.55;3.10;;;23.40;99.90;;;;;;11927810;28;20547;-60
2021/10/19 13:57:27;;;;;;;5.13;2.95;;;23.40;99.90;;;;;;11896191;28;20103;-61
2021/10/19 14:03:14;;;;;;;4.03;2.67;;;23.40;99.90;;;;;;11891351;28;20492;-60
2021/10/19 14:09:01;;;;;;;5.05;3.03;;;23.50;99.90;;;;;;11904798;28;20054;-60
2021/10/19 14:14:49;;;;;;;8.50;3.10;;;23.50;99.90;;;;;;11884882;28;20049;-60
2021/10/19 14:20:37;;;;;;;4.90;2.83;;;23.60;99.60;;;;;;11940534;28;20042;-60
2021/10/19 14:26:24;;;;;;;12.05;3.08;;;23.70;99.50;;;;;;11960438;28;20159;-61
2021/10/19 14:32:13;;;;;;;8.93;3.22;;;23.70;98.50;;;;;;11962519;28;20042;-61
2021/10/19 14:38:00;;;;;;;5.68;2.78;;;23.80;98.00;;;;;;11947918;28;20521;-62
2021/10/19 14:43:47;;;;;;;7.30;2.92;;;23.90;97.60;;;;;;11937684;28;20053;-62
2021/10/19 14:49:35;;;;;;;2.80;2.60;;;23.90;97.20;;;;;;11916481;28;20567;-62
2021/10/19 14:55:22;;;;;;;3.50;2.42;;;23.80;97.20;;;;;;11910388;28;20054;-63
2021/10/19 15:01:09;;;;;;;7.20;3.13;;;24.00;97.20;;;;;;11907998;28;20052;-62
2021/10/19 15:06:58;;;;;;;5.35;2.78;;;23.90;96.70;;;;;;11907430;28;20045;-61
2021/10/19 15:12:45;;;;;;;2.90;2.50;;;23.90;97.00;;;;;;11952719;28;20049;-62
2021/10/19 15:18:32;;;;;;;5.15;2.85;;;23.70;96.60;;;;;;11902341;28;20101;-62
2021/10/19 15:24:20;;;;;;;4.18;2.42;;;23.70;97.30;;;;;;11913040;28;20042;-62
2021/10/19 15:30:12;;;;;;;4.20;2.78;;;23.60;97.50;;;;;;11928289;28;20501;-61
2021/10/19 15:35:59;;;;;;;3.92;2.95;;;23.40;96.70;;;;;;11941871;28;20046;-62
2021/10/19 15:41:47;;;;;;;11.40;3.13;;;23.10;97.30;;;;;;11912362;28;20046;-61
2021/10/19 15:47:34;;;;;;;5.18;2.92;;;22.90;98.10;;;;;;11945344;28;20498;-61
2021/10/19 15:53:22;;;;;;;5.88;3.17;;;22.80;99.00;;;;;;11932262;28;20045;-61
2021/10/19 15:59:10;;;;;;;4.05;3.10;;;22.50;99.60;;;;;;11964446;28;20051;-62
2021/10/19 16:04:57;;;;;;;7.05;2.97;;;22.20;99.80;;;;;;11912782;28;20064;-60
2021/10/19 16:10:44;;;;;;;6.30;2.65;;;22.20;99.90;;;;;;11933992;28;20195;-61
2021/10/19 16:16:33;;;;;;;3.95;2.78;;;22.10;99.90;;;;;;11908659;28;20054;-64
2021/10/19 16:22:20;;;;;;;6.15;3.38;;;22.00;99.90;;;;;;11931509;28;20533;-63
2021/10/19 16:28:07;;;;;;;6.63;3.38;;;21.90;99.90;;;;;;11929180;28;20053;-61
2021/10/19 16:33:55;;;;;;;8.80;3.67;;;21.70;99.90;;;;;;11944593;28;20094;-62
2021/10/19 16:39:45;;;;;;;5.57;3.58;;;21.60;99.90;;;;;;11952238;28;20061;-63
2021/10/19 16:45:32;;;;;;;6.78;3.40;;;21.40;99.90;;;;;;11914715;28;20050;-63
2021/10/19 16:51:21;;;;;;;8.52;3.72;;;21.20;99.90;;;;;;11936218;28;20057;-61
2021/10/19 16:57:09;;;;;;;12.82;4.20;;;21.00;99.90;;;;;;11934055;28;20129;-62
2021/10/19 17:02:56;;;;;;;31.67;17.67;;;20.90;99.90;;;;;;11941895;28;20046;-61
2021/10/19 17:08:44;;;;;;;11.82;5.07;;;20.60;99.90;;;;;;11963408;28;20042;-61
2021/10/19 17:14:32;;;;;;;5.97;4.05;;;20.40;99.90;;;;;;11959709;28;20554;-60
2021/10/19 17:20:20;;;;;;;8.73;3.92;;;20.30;99.90;;;;;;11909381;28;20050;-60
2021/10/19 17:26:08;;;;;;;7.82;3.72;;;20.20;99.90;;;;;;11924808;28;20107;-61
2021/10/19 17:31:55;;;;;;;7.32;4.28;;;20.10;99.90;;;;;;11916535;28;20056;-56
2021/10/19 17:37:43;;;;;;;10.65;4.40;;;20.00;99.90;;;;;;11899872;28;20058;-61
2021/10/19 17:43:32;;;;;;;11.20;4.68;;;19.90;99.90;;;;;;11905489;28;20056;-60
